HOY weather

CLOSED Hoy/Longhope Airfield
Orkney Isle, Scotland, United Kingdom

Public forecast

Using degrees Celsius for public forecast. Weather courtesy of forecast.io.

METAR (pilot weather report)

Closest report is Kirkwall Airport, 13.9 nm (25.7 km) NE. Retrieved 2019/05/21 03:20 UTC (0 seconds ago):

EGPA 210320Z AUTO /////KT //// // ///////// ///// Q////

TAF (pilot weather forecast)

Closest forecast is RAF Lossiemouth, 65.4 nm (121.0 km) S. Retrieved 2019/05/21 03:59 UTC (0 seconds ago):

TAF EGQS 210152Z 2103/2121 30008KT 9999 FEW012 BKN025 TEMPO 2103/2111 4500 RADZ SCT012 PROB30 2103/2108 2000 BR BKN004 PROB30 TEMPO 2111/2121 7000 -SHRA SCT022